createdAt,value
2023-03-17T00:00:46.427Z,19.33
2023-03-17T00:03:29.555Z,19.33
2023-03-17T00:05:58.698Z,19.33
2023-03-17T00:08:28.867Z,19.23
2023-03-17T00:10:56.401Z,19.26
2023-03-17T00:13:24.117Z,19.25
2023-03-17T00:15:54.975Z,19.30
2023-03-17T00:18:22.862Z,19.29
2023-03-17T00:20:50.097Z,19.34
2023-03-17T00:23:24.856Z,19.23
2023-03-17T00:25:54.388Z,19.21
2023-03-17T00:28:24.016Z,19.17
2023-03-17T00:31:02.937Z,19.16
2023-03-17T00:33:33.375Z,19.16
2023-03-17T00:36:01.490Z,19.19
2023-03-17T00:38:29.869Z,19.16
2023-03-17T00:40:58.416Z,19.16
2023-03-17T00:43:25.480Z,19.14
2023-03-17T00:45:52.704Z,19.23
2023-03-17T00:48:23.328Z,19.18
2023-03-17T00:50:51.058Z,19.15
2023-03-17T00:53:21.792Z,19.14
2023-03-17T00:55:50.123Z,19.14
2023-03-17T00:58:32.879Z,19.14
2023-03-17T01:01:03.666Z,19.14
2023-03-17T01:03:56.003Z,19.14
2023-03-17T01:06:26.316Z,19.17
2023-03-17T01:08:59.843Z,19.12
2023-03-17T01:11:50.885Z,19.03
2023-03-17T01:14:30.290Z,18.90
2023-03-17T01:17:06.657Z,18.98
2023-03-17T01:19:46.322Z,18.93
2023-03-17T01:22:22.730Z,18.92
2023-03-17T01:24:58.483Z,18.86
2023-03-17T01:27:45.206Z,18.89
2023-03-17T01:30:23.595Z,18.90
2023-03-17T01:33:08.852Z,18.90
2023-03-17T01:35:42.424Z,18.91
2023-03-17T01:38:17.890Z,18.93
2023-03-17T01:40:57.130Z,18.86
2023-03-17T01:43:32.575Z,18.93
2023-03-17T01:46:25.163Z,18.88
2023-03-17T01:49:17.621Z,18.88
2023-03-17T01:52:21.391Z,18.89
2023-03-17T01:55:21.874Z,18.86
2023-03-17T01:58:02.975Z,18.81
2023-03-17T02:00:33.595Z,18.79
2023-03-17T02:03:00.833Z,18.83
2023-03-17T02:05:31.211Z,18.83
2023-03-17T02:07:58.877Z,18.81
2023-03-17T02:10:30.528Z,18.74
2023-03-17T02:13:02.890Z,18.73
2023-03-17T02:15:48.613Z,18.71
2023-03-17T02:18:18.687Z,18.73
2023-03-17T02:20:48.772Z,18.70
2023-03-17T02:23:19.528Z,18.73
2023-03-17T02:25:48.796Z,18.67
2023-03-17T02:28:21.746Z,18.65
2023-03-17T02:30:49.408Z,18.63
2023-03-17T02:33:19.095Z,18.68
2023-03-17T02:35:47.126Z,18.66
2023-03-17T02:38:17.612Z,18.63
2023-03-17T02:40:44.801Z,18.59
2023-03-17T02:43:11.983Z,18.61
2023-03-17T02:45:39.250Z,18.54
2023-03-17T02:48:08.843Z,18.52
2023-03-17T02:50:36.248Z,18.56
2023-03-17T02:53:03.399Z,18.53
2023-03-17T02:55:30.545Z,18.48
2023-03-17T02:57:59.093Z,18.47
2023-03-17T03:00:26.682Z,18.44
2023-03-17T03:02:54.022Z,18.45
2023-03-17T03:05:21.298Z,18.42
2023-03-17T03:07:48.462Z,18.38
2023-03-17T03:10:15.965Z,18.37
2023-03-17T03:12:42.997Z,18.33
2023-03-17T03:15:10.772Z,18.37
2023-03-17T03:17:37.868Z,18.31
2023-03-17T03:20:05.810Z,18.29
2023-03-17T03:22:33.029Z,18.32
2023-03-17T03:25:00.414Z,18.17
2023-03-17T03:27:27.526Z,18.23
2023-03-17T03:29:54.739Z,18.13
2023-03-17T03:32:21.831Z,18.20
2023-03-17T03:34:49.517Z,18.19
2023-03-17T03:37:16.740Z,18.24
2023-03-17T03:39:43.873Z,18.23
2023-03-17T03:42:11.023Z,18.19
2023-03-17T03:44:38.276Z,18.12
2023-03-17T03:47:05.571Z,18.05
2023-03-17T03:49:33.008Z,18.09
2023-03-17T03:52:04.130Z,18.09
2023-03-17T03:54:31.249Z,18.08
2023-03-17T03:56:58.357Z,18.14
2023-03-17T03:59:25.727Z,18.09
2023-03-17T04:01:52.834Z,18.16
2023-03-17T04:04:19.835Z,18.19
2023-03-17T04:06:46.988Z,18.20
2023-03-17T04:09:14.530Z,18.17
2023-03-17T04:11:41.685Z,18.15
2023-03-17T04:14:08.853Z,18.13
2023-03-17T04:16:36.691Z,18.16
2023-03-17T04:19:03.901Z,18.16
2023-03-17T04:21:31.368Z,18.13
2023-03-17T04:23:59.043Z,18.12
2023-03-17T04:26:26.322Z,18.09
2023-03-17T04:28:53.739Z,18.09
2023-03-17T04:31:23.760Z,18.09
2023-03-17T04:33:50.958Z,18.09
2023-03-17T04:36:25.775Z,18.09
2023-03-17T04:38:53.518Z,18.14
2023-03-17T04:41:21.841Z,18.02
2023-03-17T04:43:51.455Z,18.11
2023-03-17T04:46:19.461Z,17.96
2023-03-17T04:48:46.595Z,18.00
2023-03-17T04:51:13.646Z,18.02
2023-03-17T04:53:40.835Z,18.00
2023-03-17T04:56:08.010Z,17.98
2023-03-17T04:58:35.107Z,17.95
2023-03-17T05:01:03.828Z,17.90
2023-03-17T05:03:31.777Z,17.97
2023-03-17T05:05:59.767Z,17.90
2023-03-17T05:08:28.571Z,17.89
2023-03-17T05:10:57.550Z,17.84
2023-03-17T05:13:25.877Z,17.64
2023-03-17T05:15:55.463Z,17.73
2023-03-17T05:18:25.334Z,17.70
2023-03-17T05:20:52.809Z,17.74
2023-03-17T05:23:20.741Z,17.69
2023-03-17T05:25:48.442Z,17.70
2023-03-17T05:28:15.700Z,17.77
2023-03-17T05:30:43.744Z,17.78
2023-03-17T05:33:10.971Z,17.75
2023-03-17T05:35:38.631Z,17.71
2023-03-17T05:38:05.806Z,17.80
2023-03-17T05:40:33.371Z,17.83
2023-03-17T05:43:01.046Z,17.81
2023-03-17T05:45:29.517Z,17.78
2023-03-17T05:47:58.665Z,17.74
2023-03-17T05:50:26.170Z,17.80
2023-03-17T05:52:53.733Z,17.80
2023-03-17T05:55:21.082Z,17.80
2023-03-17T05:57:48.133Z,17.81
2023-03-17T06:00:19.042Z,17.85
2023-03-17T06:02:46.421Z,17.86
2023-03-17T06:05:13.752Z,17.82
2023-03-17T06:07:51.960Z,17.85
2023-03-17T06:10:20.747Z,17.84
2023-03-17T06:12:47.762Z,17.86
2023-03-17T06:15:16.815Z,17.88
2023-03-17T06:17:44.181Z,17.90
2023-03-17T06:20:12.233Z,17.97
2023-03-17T06:22:48.823Z,17.98
2023-03-17T06:25:22.717Z,18.00
2023-03-17T06:27:54.687Z,17.99
2023-03-17T06:30:22.612Z,18.00
2023-03-17T06:32:50.441Z,18.02
2023-03-17T06:35:18.278Z,18.11
2023-03-17T06:37:45.345Z,18.15
2023-03-17T06:40:13.232Z,18.14
2023-03-17T06:42:40.295Z,18.20
2023-03-17T06:45:11.244Z,18.21
2023-03-17T06:47:38.428Z,18.15
2023-03-17T06:50:06.201Z,18.20
2023-03-17T06:52:33.658Z,18.23
2023-03-17T06:55:00.697Z,18.15
2023-03-17T06:57:27.891Z,18.21
2023-03-17T06:59:54.949Z,18.22
2023-03-17T07:02:22.091Z,18.25
2023-03-17T07:04:49.285Z,18.27
2023-03-17T07:07:16.826Z,18.21
2023-03-17T07:09:43.865Z,18.33
2023-03-17T07:12:11.051Z,18.36
2023-03-17T07:14:38.643Z,18.36
2023-03-17T07:17:06.924Z,18.31
2023-03-17T07:19:35.258Z,18.41
2023-03-17T07:22:02.378Z,18.40
2023-03-17T07:24:32.427Z,18.37
2023-03-17T07:26:59.761Z,18.43
2023-03-17T07:29:29.755Z,18.42
2023-03-17T07:31:57.359Z,18.44
2023-03-17T07:34:24.453Z,18.42
2023-03-17T07:36:51.685Z,18.40
2023-03-17T07:39:18.830Z,18.43
2023-03-17T07:41:48.476Z,18.53
2023-03-17T07:44:16.646Z,18.53
2023-03-17T07:46:43.866Z,18.61
2023-03-17T07:49:10.886Z,18.63
2023-03-17T07:51:38.959Z,18.56
2023-03-17T07:54:06.599Z,18.71
2023-03-17T07:56:33.726Z,18.72
2023-03-17T07:59:00.882Z,18.71
2023-03-17T08:01:28.936Z,18.68
2023-03-17T08:03:56.783Z,18.61
2023-03-17T08:06:25.563Z,18.76
2023-03-17T08:08:54.644Z,18.73
2023-03-17T08:11:29.357Z,18.82
2023-03-17T08:13:56.767Z,18.96
2023-03-17T08:16:24.106Z,19.08
2023-03-17T08:18:52.857Z,19.13
2023-03-17T08:21:20.523Z,19.10
2023-03-17T08:23:48.816Z,19.28
2023-03-17T08:26:17.481Z,19.33
2023-03-17T08:28:45.265Z,19.30
2023-03-17T08:31:21.075Z,19.29
2023-03-17T08:33:51.192Z,19.40
2023-03-17T08:36:19.695Z,19.60
2023-03-17T08:38:48.567Z,19.91
2023-03-17T08:41:22.084Z,19.92
2023-03-17T08:43:50.602Z,20.19
2023-03-17T08:46:24.922Z,20.71
2023-03-17T08:48:53.062Z,20.68
2023-03-17T08:51:24.164Z,21.11
2023-03-17T08:53:53.502Z,20.82
2023-03-17T08:56:24.514Z,20.80
2023-03-17T08:58:54.924Z,20.88
2023-03-17T09:01:24.697Z,20.93
2023-03-17T09:03:55.350Z,20.75
2023-03-17T09:06:23.718Z,20.53
2023-03-17T09:09:00.382Z,20.18
2023-03-17T09:11:32.905Z,20.43
2023-03-17T09:14:01.287Z,20.47
2023-03-17T09:16:34.380Z,20.59
2023-03-17T09:19:02.143Z,20.52
2023-03-17T09:21:29.443Z,20.60
2023-03-17T09:23:58.007Z,20.72
2023-03-17T09:26:26.679Z,20.59
2023-03-17T09:28:54.800Z,20.77
2023-03-17T09:31:22.235Z,20.82
2023-03-17T09:33:50.736Z,20.85
2023-03-17T09:36:18.029Z,20.73
2023-03-17T09:38:45.168Z,20.86
2023-03-17T09:41:25.138Z,20.99
2023-03-17T09:44:20.490Z,20.82
2023-03-17T09:47:34.911Z,20.85
2023-03-17T09:50:09.461Z,20.60
2023-03-17T09:52:37.018Z,20.57
2023-03-17T09:55:13.316Z,20.55
2023-03-17T09:57:44.021Z,20.85
2023-03-17T10:00:18.500Z,20.95
2023-03-17T10:02:47.586Z,20.84
2023-03-17T10:05:33.272Z,20.80
2023-03-17T10:11:31.702Z,20.42
2023-03-17T10:14:35.502Z,20.72
2023-03-17T10:17:20.169Z,20.71
2023-03-17T10:20:03.558Z,20.74
2023-03-17T10:22:40.247Z,20.94
2023-03-17T10:25:21.645Z,21.24
2023-03-17T10:28:00.154Z,21.42
2023-03-17T10:30:27.730Z,21.70
2023-03-17T10:32:59.609Z,21.75
2023-03-17T10:35:39.170Z,22.12
2023-03-17T10:38:33.984Z,22.11
2023-03-17T10:41:12.726Z,22.16
2023-03-17T10:43:50.973Z,22.36
2023-03-17T10:46:24.738Z,23.07
2023-03-17T10:49:00.412Z,23.13
2023-03-17T10:51:43.654Z,23.52
2023-03-17T10:54:20.082Z,23.55
2023-03-17T10:56:55.083Z,23.29
2023-03-17T10:59:33.434Z,23.18
2023-03-17T11:02:36.364Z,22.90
2023-03-17T11:05:11.392Z,23.22
2023-03-17T11:07:41.047Z,23.75
2023-03-17T11:10:26.387Z,24.04
2023-03-17T11:13:02.091Z,23.93
2023-03-17T11:15:44.597Z,23.89
2023-03-17T11:18:23.054Z,24.49
2023-03-17T11:21:05.300Z,24.20
2023-03-17T11:23:52.578Z,24.68
2023-03-17T11:26:29.126Z,24.75
2023-03-17T11:29:29.721Z,25.07
2023-03-17T11:32:00.105Z,25.44
2023-03-17T11:35:05.638Z,25.69
2023-03-17T11:37:43.639Z,25.30
2023-03-17T11:40:58.198Z,25.10
2023-03-17T11:43:25.176Z,24.80
2023-03-17T11:45:58.169Z,24.96
2023-03-17T11:48:39.861Z,24.82
2023-03-17T11:51:27.691Z,24.61
2023-03-17T11:54:09.910Z,25.05
2023-03-17T11:56:46.590Z,25.24
2023-03-17T11:59:42.207Z,25.26
2023-03-17T12:02:37.693Z,25.86
2023-03-17T12:05:11.468Z,25.74
2023-03-17T12:07:59.673Z,25.74
2023-03-17T12:10:55.714Z,26.22
2023-03-17T12:13:22.745Z,26.48
2023-03-17T12:16:37.532Z,26.72
2023-03-17T12:19:19.649Z,27.03
2023-03-17T12:22:13.478Z,27.03
2023-03-17T12:24:48.274Z,26.85
2023-03-17T12:28:01.734Z,27.30
2023-03-17T12:30:50.709Z,27.45
2023-03-17T12:33:21.647Z,27.63
2023-03-17T12:35:49.128Z,27.70
2023-03-17T12:38:29.940Z,27.85
2023-03-17T12:41:24.969Z,27.57
2023-03-17T12:44:28.926Z,27.82
2023-03-17T12:47:16.443Z,27.59
2023-03-17T12:50:05.894Z,27.85
2023-03-17T12:53:02.291Z,27.62
2023-03-17T12:55:33.279Z,28.22
2023-03-17T12:58:29.663Z,27.95
2023-03-17T13:01:17.884Z,28.25
2023-03-17T13:04:12.259Z,28.00
2023-03-17T13:06:59.359Z,28.00
2023-03-17T13:09:39.047Z,27.59
2023-03-17T13:12:11.200Z,27.09
2023-03-17T13:14:51.854Z,27.57
2023-03-17T13:17:19.930Z,27.77
2023-03-17T13:20:04.579Z,27.87
2023-03-17T13:22:38.111Z,27.65
2023-03-17T13:25:41.963Z,26.86
2023-03-17T13:28:12.235Z,27.13
2023-03-17T13:30:39.563Z,27.18
2023-03-17T13:33:09.974Z,27.49
2023-03-17T13:35:42.352Z,27.29
2023-03-17T13:38:31.141Z,26.62
2023-03-17T13:41:07.277Z,26.81
2023-03-17T13:43:52.401Z,26.37
2023-03-17T13:46:27.630Z,26.10
2023-03-17T13:48:56.595Z,25.92
2023-03-17T13:51:33.975Z,25.34
2023-03-17T13:54:17.490Z,25.60
2023-03-17T13:56:47.931Z,26.00
2023-03-17T13:59:24.936Z,25.65
2023-03-17T14:02:13.335Z,26.01
2023-03-17T14:04:50.601Z,26.16
2023-03-17T14:07:24.164Z,26.16
2023-03-17T14:09:57.656Z,26.57
2023-03-17T14:12:46.975Z,26.19
2023-03-17T14:15:35.291Z,25.49
2023-03-17T14:18:16.157Z,24.99
2023-03-17T14:20:58.172Z,24.87
2023-03-17T14:23:29.439Z,24.54
2023-03-17T14:25:57.878Z,24.58
2023-03-17T14:28:32.633Z,24.51
2023-03-17T14:31:03.055Z,24.08
2023-03-17T14:33:33.864Z,23.84
2023-03-17T14:36:03.076Z,23.96
2023-03-17T14:38:38.969Z,23.74
2023-03-17T14:41:15.926Z,23.92
2023-03-17T14:43:44.638Z,23.57
2023-03-17T14:46:22.367Z,23.29
2023-03-17T14:48:52.884Z,23.37
2023-03-17T14:51:29.198Z,23.35
2023-03-17T14:54:05.230Z,23.55
2023-03-17T14:56:38.436Z,23.54
2023-03-17T14:59:39.608Z,23.56
2023-03-17T15:02:34.641Z,23.62
2023-03-17T15:05:25.029Z,23.26
2023-03-17T15:07:53.125Z,23.26
2023-03-17T15:10:24.892Z,23.27
2023-03-17T15:13:07.271Z,22.84
2023-03-17T15:15:39.417Z,23.18
2023-03-17T15:18:15.877Z,23.10
2023-03-17T15:20:45.142Z,23.29
2023-03-17T15:23:19.908Z,23.37
2023-03-17T15:25:56.679Z,23.30
2023-03-17T15:28:28.622Z,23.19
2023-03-17T15:31:11.963Z,23.35
2023-03-17T15:33:43.086Z,22.81
2023-03-17T15:36:33.569Z,22.98
2023-03-17T15:39:02.811Z,23.31
2023-03-17T15:41:33.412Z,23.30
2023-03-17T15:44:04.021Z,23.09
2023-03-17T15:46:33.777Z,23.33
2023-03-17T15:49:12.980Z,23.20
2023-03-17T15:51:40.172Z,23.17
2023-03-17T15:54:07.223Z,22.87
2023-03-17T15:56:36.572Z,22.65
2023-03-17T15:59:03.665Z,22.40
2023-03-17T16:01:30.871Z,22.40
2023-03-17T16:03:58.042Z,22.74
2023-03-17T16:06:25.515Z,22.41
2023-03-17T16:08:52.557Z,22.39
2023-03-17T16:11:28.402Z,22.29
2023-03-17T16:14:00.047Z,22.14
2023-03-17T16:16:32.347Z,21.83
2023-03-17T16:19:00.514Z,21.49
2023-03-17T16:21:29.599Z,21.71
2023-03-17T16:23:57.037Z,21.64
2023-03-17T16:26:24.523Z,21.63
2023-03-17T16:28:51.753Z,21.57
2023-03-17T16:31:23.645Z,21.52
2023-03-17T16:33:52.840Z,21.59
2023-03-17T16:36:24.442Z,21.49
2023-03-17T16:38:52.223Z,21.30
2023-03-17T16:41:29.985Z,21.24
2023-03-17T16:44:07.825Z,21.29
2023-03-17T16:46:35.839Z,21.44
2023-03-17T16:49:06.724Z,21.56
2023-03-17T16:51:33.916Z,21.44
2023-03-17T16:54:01.061Z,21.58
2023-03-17T16:56:28.713Z,21.60
2023-03-17T16:58:55.864Z,21.51
2023-03-17T17:01:32.155Z,21.48
2023-03-17T17:03:59.702Z,21.53
2023-03-17T17:06:26.912Z,21.43
2023-03-17T17:08:54.244Z,21.41
2023-03-17T17:11:22.115Z,21.36
2023-03-17T17:13:50.243Z,21.27
2023-03-17T17:16:28.393Z,21.24
2023-03-17T17:19:03.179Z,21.32
2023-03-17T17:21:32.213Z,21.36
2023-03-17T17:23:59.556Z,20.97
2023-03-17T17:26:29.743Z,20.93
2023-03-17T17:29:03.155Z,21.01
2023-03-17T17:31:38.735Z,20.95
2023-03-17T17:34:27.312Z,20.81
2023-03-17T17:40:11.417Z,20.83
2023-03-17T17:42:47.026Z,20.75
2023-03-17T17:45:31.005Z,20.63
2023-03-17T17:48:06.860Z,20.68
2023-03-17T17:50:48.197Z,20.65
2023-03-17T17:53:23.231Z,20.47
2023-03-17T17:56:07.616Z,20.71
2023-03-17T17:58:35.390Z,20.57
2023-03-17T18:01:08.676Z,20.63
2023-03-17T18:03:46.987Z,20.27
2023-03-17T18:06:17.910Z,20.26
2023-03-17T18:08:50.141Z,20.33
2023-03-17T18:11:27.350Z,20.16
2023-03-17T18:13:55.006Z,20.14
2023-03-17T18:16:22.138Z,20.25
2023-03-17T18:18:49.675Z,20.28
2023-03-17T18:21:17.649Z,20.24
2023-03-17T18:23:49.011Z,20.29
2023-03-17T18:26:18.143Z,20.25
2023-03-17T18:28:45.656Z,20.25
2023-03-17T18:31:20.111Z,20.24
2023-03-17T18:33:49.468Z,20.21
2023-03-17T18:36:16.785Z,20.18
2023-03-17T18:38:43.888Z,20.02
2023-03-17T18:41:11.422Z,20.09
2023-03-17T18:43:39.543Z,20.08
2023-03-17T18:46:07.115Z,19.83
2023-03-17T18:48:36.705Z,19.71
2023-03-17T18:51:04.306Z,19.68
2023-03-17T18:53:33.401Z,19.62
2023-03-17T18:56:00.825Z,19.20
2023-03-17T18:58:29.017Z,19.55
2023-03-17T19:01:01.202Z,19.61
2023-03-17T19:03:32.296Z,19.47
2023-03-17T19:06:09.123Z,19.62
2023-03-17T19:08:37.345Z,19.61
2023-03-17T19:11:11.753Z,19.50
2023-03-17T19:13:39.312Z,19.46
2023-03-17T19:16:08.062Z,19.41
2023-03-17T19:18:37.189Z,19.58
2023-03-17T19:21:04.711Z,19.41
2023-03-17T19:23:34.989Z,19.36
2023-03-17T19:26:03.012Z,19.34
2023-03-17T19:28:30.486Z,19.56
2023-03-17T19:30:58.658Z,19.51
2023-03-17T19:33:29.370Z,19.42
2023-03-17T19:35:58.848Z,19.39
2023-03-17T19:38:29.175Z,19.48
2023-03-17T19:41:01.168Z,19.57
2023-03-17T19:43:39.978Z,19.54
2023-03-17T19:46:08.248Z,19.53
2023-03-17T19:48:36.748Z,19.46
2023-03-17T19:51:05.130Z,19.37
2023-03-17T19:53:32.528Z,19.41
2023-03-17T19:56:00.713Z,19.29
2023-03-17T19:58:28.077Z,19.45
2023-03-17T20:00:55.578Z,19.42
2023-03-17T20:03:25.587Z,19.44
2023-03-17T20:05:53.607Z,19.46
2023-03-17T20:08:22.627Z,19.53
2023-03-17T20:10:56.828Z,19.61
2023-03-17T20:13:24.174Z,19.53
2023-03-17T20:15:51.837Z,19.57
2023-03-17T20:18:19.342Z,19.56
2023-03-17T20:20:52.288Z,19.56
2023-03-17T20:23:19.766Z,19.61
2023-03-17T20:25:46.951Z,19.63
2023-03-17T20:28:14.263Z,19.70
2023-03-17T20:30:43.992Z,19.73
2023-03-17T20:33:14.706Z,19.70
2023-03-17T20:35:44.001Z,19.67
2023-03-17T20:38:14.839Z,19.74
2023-03-17T20:40:42.383Z,19.52
2023-03-17T20:43:09.759Z,19.63
2023-03-17T20:45:38.644Z,19.58
2023-03-17T20:48:09.245Z,19.51
2023-03-17T20:50:37.146Z,19.60
2023-03-17T20:53:06.493Z,19.32
2023-03-17T20:55:39.379Z,19.34
2023-03-17T20:58:09.295Z,19.48
2023-03-17T21:00:36.367Z,19.52
2023-03-17T21:03:06.460Z,19.35
2023-03-17T21:05:37.050Z,19.48
2023-03-17T21:08:05.736Z,19.45
2023-03-17T21:10:33.312Z,19.52
2023-03-17T21:13:00.573Z,19.59
2023-03-17T21:15:27.871Z,19.46
2023-03-17T21:17:55.281Z,19.57
2023-03-17T21:20:22.550Z,19.37
2023-03-17T21:22:50.034Z,19.53
2023-03-17T21:25:17.501Z,19.26
2023-03-17T21:27:47.310Z,19.39
2023-03-17T21:30:14.748Z,19.28
2023-03-17T21:32:42.068Z,19.27
2023-03-17T21:35:12.074Z,19.40
2023-03-17T21:37:41.940Z,19.35
2023-03-17T21:40:13.702Z,19.02
2023-03-17T21:42:41.133Z,19.20
2023-03-17T21:45:09.309Z,19.13
2023-03-17T21:47:36.592Z,19.09
2023-03-17T21:50:07.220Z,19.06
2023-03-17T21:52:34.850Z,19.23
2023-03-17T21:55:02.045Z,19.07
2023-03-17T21:57:29.812Z,18.94
2023-03-17T21:59:57.060Z,19.14
2023-03-17T22:02:24.480Z,19.15
2023-03-17T22:04:51.681Z,19.13
2023-03-17T22:07:19.123Z,19.23
2023-03-17T22:09:46.255Z,19.29
2023-03-17T22:12:13.901Z,19.20
2023-03-17T22:14:40.982Z,19.31
2023-03-17T22:17:08.540Z,19.33
2023-03-17T22:19:40.351Z,19.33
2023-03-17T22:22:10.308Z,19.11
2023-03-17T22:24:41.022Z,19.25
2023-03-17T22:27:08.754Z,19.15
2023-03-17T22:29:37.005Z,19.23
2023-03-17T22:32:05.006Z,19.05
2023-03-17T22:34:32.362Z,19.25
2023-03-17T22:36:59.552Z,19.18
2023-03-17T22:39:28.011Z,19.30
2023-03-17T22:41:55.269Z,19.34
2023-03-17T22:44:25.578Z,19.15
2023-03-17T22:46:55.912Z,19.11
2023-03-17T22:49:23.913Z,19.26
2023-03-17T22:51:51.450Z,19.11
2023-03-17T22:54:22.418Z,19.25
2023-03-17T22:56:49.834Z,19.22
2023-03-17T22:59:18.494Z,19.19
2023-03-17T23:01:46.006Z,18.75
2023-03-17T23:04:13.394Z,19.15
2023-03-17T23:06:41.827Z,19.12
2023-03-17T23:09:13.497Z,19.10
2023-03-17T23:11:41.870Z,19.13
2023-03-17T23:14:09.227Z,19.04
2023-03-17T23:16:37.892Z,18.88
2023-03-17T23:19:07.928Z,19.07
2023-03-17T23:21:38.042Z,19.06
2023-03-17T23:24:08.036Z,19.15
2023-03-17T23:26:37.256Z,19.10
2023-03-17T23:29:07.337Z,19.01
2023-03-17T23:31:35.640Z,19.05
2023-03-17T23:34:12.427Z,19.06
2023-03-17T23:36:40.376Z,19.07
2023-03-17T23:39:10.669Z,19.01
2023-03-17T23:41:39.221Z,19.01
2023-03-17T23:44:06.811Z,19.03
2023-03-17T23:46:36.825Z,18.98
2023-03-17T23:49:07.686Z,19.05
2023-03-17T23:51:35.826Z,19.08
2023-03-17T23:54:04.449Z,19.06
2023-03-17T23:56:32.648Z,19.03
2023-03-17T23:59:00.459Z,18.95
